createdAt,value
2022-12-18T00:01:26.194Z,13.45
2022-12-18T00:03:54.981Z,14.38
2022-12-18T00:06:23.486Z,14.80
2022-12-18T00:08:50.469Z,15.45
2022-12-18T00:11:20.128Z,13.98
2022-12-18T00:13:47.562Z,12.60
2022-12-18T00:16:17.803Z,12.07
2022-12-18T00:18:44.789Z,14.00
2022-12-18T00:21:13.074Z,14.43
2022-12-18T00:23:42.501Z,14.13
2022-12-18T00:26:13.800Z,14.27
2022-12-18T00:28:40.696Z,15.00
2022-12-18T00:31:12.088Z,14.20
2022-12-18T00:33:40.055Z,13.48
2022-12-18T00:36:16.741Z,13.55
2022-12-18T00:38:44.950Z,14.35
2022-12-18T00:41:14.029Z,13.55
2022-12-18T00:43:41.627Z,14.03
2022-12-18T00:46:09.420Z,13.88
2022-12-18T00:48:37.038Z,13.50
2022-12-18T00:51:04.420Z,14.05
2022-12-18T00:53:31.842Z,13.55
2022-12-18T00:55:59.350Z,13.77
2022-12-18T00:58:26.808Z,13.15
2022-12-18T01:00:56.913Z,14.48
2022-12-18T01:03:24.402Z,12.57
2022-12-18T01:05:52.298Z,13.27
2022-12-18T01:08:19.800Z,12.32
2022-12-18T01:10:47.182Z,12.35
2022-12-18T01:13:14.649Z,12.60
2022-12-18T01:15:42.017Z,14.18
2022-12-18T01:18:11.791Z,13.35
2022-12-18T01:20:39.624Z,13.48
2022-12-18T01:23:07.183Z,13.40
2022-12-18T01:25:39.825Z,12.25
2022-12-18T01:28:10.579Z,13.27
2022-12-18T01:30:40.921Z,12.93
2022-12-18T01:35:42.713Z,13.68
2022-12-18T01:38:10.549Z,12.10
2022-12-18T01:40:38.142Z,12.73
2022-12-18T01:43:05.506Z,14.38
2022-12-18T01:45:36.227Z,12.38
2022-12-18T01:48:07.047Z,13.57
2022-12-18T01:50:41.024Z,12.85
2022-12-18T01:53:19.034Z,12.60
2022-12-18T01:55:46.348Z,11.73
2022-12-18T01:58:13.948Z,12.23
2022-12-18T02:00:41.721Z,13.02
2022-12-18T02:03:09.167Z,13.85
2022-12-18T02:05:49.300Z,12.43
2022-12-18T02:08:20.923Z,10.93
2022-12-18T02:10:48.802Z,12.77
2022-12-18T02:13:25.639Z,11.35
2022-12-18T02:15:59.011Z,11.93
2022-12-18T02:18:33.334Z,11.55
2022-12-18T02:21:32.588Z,11.45
2022-12-18T02:24:27.383Z,12.10
2022-12-18T02:27:07.750Z,11.77
2022-12-18T02:29:41.574Z,10.85
2022-12-18T02:32:14.375Z,11.27
2022-12-18T02:34:41.870Z,11.90
2022-12-18T02:37:18.574Z,11.25
2022-12-18T02:39:48.468Z,9.85
2022-12-18T02:42:16.754Z,10.35
2022-12-18T02:44:50.269Z,10.77
2022-12-18T02:47:23.427Z,11.52
2022-12-18T02:49:53.930Z,10.60
2022-12-18T02:52:30.505Z,9.93
2022-12-18T02:54:59.566Z,11.43
2022-12-18T02:57:40.798Z,10.77
2022-12-18T03:00:15.203Z,10.93
2022-12-18T03:03:00.421Z,12.48
2022-12-18T03:06:02.806Z,12.25
2022-12-18T03:08:35.397Z,11.18
2022-12-18T03:11:07.043Z,10.68
2022-12-18T03:13:48.627Z,11.50
2022-12-18T03:16:23.356Z,9.85
2022-12-18T03:18:56.946Z,10.90
2022-12-18T03:21:30.720Z,11.30
2022-12-18T03:23:58.933Z,11.15
2022-12-18T03:26:28.937Z,10.35
2022-12-18T03:29:04.256Z,10.90
2022-12-18T03:31:36.484Z,10.90
2022-12-18T03:34:10.030Z,12.10
2022-12-18T03:36:43.100Z,10.60
2022-12-18T03:39:10.501Z,10.07
2022-12-18T03:41:59.612Z,12.48
2022-12-18T03:44:42.365Z,10.95
2022-12-18T03:47:37.574Z,10.88
2022-12-18T03:50:13.447Z,10.65
2022-12-18T03:52:46.104Z,10.18
2022-12-18T03:55:14.002Z,10.70
2022-12-18T03:57:45.289Z,11.20
2022-12-18T04:00:15.546Z,10.10
2022-12-18T04:02:56.644Z,10.93
2022-12-18T04:05:34.207Z,10.85
2022-12-18T04:08:02.893Z,11.32
2022-12-18T04:10:33.221Z,10.98
2022-12-18T04:13:02.695Z,10.82
2022-12-18T04:15:30.731Z,10.57
2022-12-18T04:17:59.702Z,10.27
2022-12-18T04:20:35.895Z,9.85
2022-12-18T04:23:04.494Z,9.20
2022-12-18T04:25:32.097Z,10.85
2022-12-18T04:28:09.702Z,10.43
2022-12-18T04:30:39.141Z,9.88
2022-12-18T04:33:13.172Z,10.73
2022-12-18T04:35:42.652Z,10.38
2022-12-18T04:38:10.899Z,8.73
2022-12-18T04:40:39.373Z,9.97
2022-12-18T04:43:15.601Z,10.15
2022-12-18T04:45:42.960Z,8.63
2022-12-18T04:48:10.279Z,9.65
2022-12-18T04:50:38.367Z,10.75
2022-12-18T04:53:05.728Z,9.02
2022-12-18T04:55:33.057Z,9.63
2022-12-18T04:58:00.411Z,8.60
2022-12-18T05:00:27.771Z,9.27
2022-12-18T05:02:55.617Z,9.63
2022-12-18T05:05:23.142Z,9.00
2022-12-18T05:07:50.473Z,7.60
2022-12-18T05:10:17.939Z,9.10
2022-12-18T05:13:01.216Z,8.27
2022-12-18T05:15:30.599Z,9.35
2022-12-18T05:17:58.365Z,9.02
2022-12-18T05:20:26.108Z,8.43
2022-12-18T05:22:53.986Z,8.55
2022-12-18T05:25:21.341Z,9.63
2022-12-18T05:27:49.029Z,9.15
2022-12-18T05:30:16.726Z,8.65
2022-12-18T05:32:44.455Z,9.02
2022-12-18T05:35:12.283Z,8.10
2022-12-18T05:37:42.921Z,8.50
2022-12-18T05:40:10.995Z,7.50
2022-12-18T05:42:38.306Z,7.32
2022-12-18T05:45:06.106Z,8.68
2022-12-18T05:47:33.433Z,8.55
2022-12-18T05:50:00.796Z,8.15
2022-12-18T05:52:28.106Z,7.50
2022-12-18T05:54:55.456Z,8.45
2022-12-18T05:57:22.792Z,7.32
2022-12-18T05:59:50.218Z,9.50
2022-12-18T06:02:17.615Z,8.68
2022-12-18T06:04:44.963Z,7.88
2022-12-18T06:07:12.256Z,7.50
2022-12-18T06:09:39.592Z,7.75
2022-12-18T06:12:06.929Z,7.97
2022-12-18T06:14:34.232Z,7.60
2022-12-18T06:17:01.314Z,6.80
2022-12-18T06:19:28.628Z,8.32
2022-12-18T06:21:55.945Z,8.15
2022-12-18T06:24:23.274Z,8.02
2022-12-18T06:26:50.569Z,7.43
2022-12-18T06:29:17.928Z,7.43
2022-12-18T06:31:45.252Z,7.78
2022-12-18T06:34:12.608Z,10.60
2022-12-18T06:36:40.086Z,9.23
2022-12-18T06:39:07.405Z,8.43
2022-12-18T06:41:34.958Z,8.27
2022-12-18T06:44:02.298Z,9.45
2022-12-18T06:46:29.566Z,8.10
2022-12-18T06:48:56.895Z,8.13
2022-12-18T06:51:24.807Z,8.88
2022-12-18T06:53:52.314Z,9.43
2022-12-18T06:56:19.599Z,9.00
2022-12-18T06:58:46.991Z,9.75
2022-12-18T07:01:14.627Z,8.40
2022-12-18T07:03:43.178Z,8.40
2022-12-18T07:06:18.876Z,8.27
2022-12-18T07:08:46.693Z,8.60
2022-12-18T07:11:14.544Z,9.38
2022-12-18T07:13:42.181Z,7.30
2022-12-18T07:16:18.372Z,8.95
2022-12-18T07:18:48.698Z,9.00
2022-12-18T07:21:18.716Z,6.85
2022-12-18T07:23:48.926Z,9.05
2022-12-18T07:26:19.367Z,8.70
2022-12-18T07:31:19.513Z,9.48
2022-12-18T07:33:48.844Z,8.60
2022-12-18T07:36:16.494Z,9.38
2022-12-18T07:38:44.024Z,9.73
2022-12-18T07:41:13.397Z,7.45
2022-12-18T07:43:41.855Z,9.68
2022-12-18T07:46:10.154Z,8.07
2022-12-18T07:48:37.520Z,12.43
2022-12-18T07:51:06.639Z,19.25
2022-12-18T07:53:35.287Z,16.45
2022-12-18T07:56:26.447Z,11.02
2022-12-18T07:58:53.385Z,11.48
2022-12-18T08:01:21.321Z,10.82
2022-12-18T08:03:48.433Z,9.68
2022-12-18T08:06:17.473Z,11.15
2022-12-18T08:08:44.739Z,10.35
2022-12-18T08:11:12.125Z,8.25
2022-12-18T08:13:39.688Z,9.32
2022-12-18T08:16:08.588Z,9.27
2022-12-18T08:18:37.987Z,9.40
2022-12-18T08:21:24.087Z,8.38
2022-12-18T08:23:52.741Z,9.95
2022-12-18T08:26:20.988Z,9.88
2022-12-18T08:28:48.608Z,7.82
2022-12-18T08:31:16.945Z,8.45
2022-12-18T08:33:44.490Z,7.85
2022-12-18T08:36:12.216Z,7.47
2022-12-18T08:38:39.733Z,8.30
2022-12-18T08:41:09.621Z,8.57
2022-12-18T08:43:55.618Z,8.30
2022-12-18T08:46:25.091Z,9.10
2022-12-18T08:48:53.041Z,13.15
2022-12-18T08:51:20.756Z,17.10
2022-12-18T08:53:48.194Z,15.95
2022-12-18T08:56:16.084Z,15.52
2022-12-18T08:58:43.810Z,13.60
2022-12-18T09:01:13.398Z,14.10
2022-12-18T09:03:41.423Z,12.63
2022-12-18T09:06:09.591Z,13.07
2022-12-18T09:08:38.185Z,11.35
2022-12-18T09:11:06.225Z,15.35
2022-12-18T09:13:33.513Z,13.68
2022-12-18T09:16:00.827Z,12.70
2022-12-18T09:18:28.120Z,12.88
2022-12-18T09:20:55.443Z,12.18
2022-12-18T09:23:22.757Z,10.73
2022-12-18T09:25:50.384Z,10.68
2022-12-18T09:35:25.158Z,8.63
2022-12-18T09:37:52.465Z,7.97
2022-12-18T09:40:22.748Z,8.48
2022-12-18T09:42:56.751Z,7.65
2022-12-18T09:45:24.560Z,10.00
2022-12-18T09:47:53.376Z,7.93
2022-12-18T09:50:20.679Z,7.63
2022-12-18T09:52:53.406Z,8.32
2022-12-18T09:55:37.496Z,7.85
2022-12-18T09:58:30.099Z,9.27
2022-12-18T10:00:57.882Z,8.40
2022-12-18T10:03:25.332Z,8.90
2022-12-18T10:06:00.533Z,9.15
2022-12-18T10:09:06.871Z,9.43
2022-12-18T10:11:43.130Z,9.60
2022-12-18T10:14:10.537Z,9.45
2022-12-18T10:16:59.461Z,9.70
2022-12-18T10:19:39.867Z,9.75
2022-12-18T10:22:25.761Z,9.25
2022-12-18T10:25:22.910Z,8.10
2022-12-18T10:27:55.868Z,8.55
2022-12-18T10:30:25.536Z,8.73
2022-12-18T10:32:53.623Z,7.80
2022-12-18T10:35:26.872Z,7.47
2022-12-18T10:38:06.471Z,7.93
2022-12-18T10:40:48.281Z,7.93
2022-12-18T10:43:17.417Z,6.75
2022-12-18T10:46:19.191Z,8.70
2022-12-18T10:48:49.356Z,8.98
2022-12-18T10:54:18.310Z,8.63
2022-12-18T10:56:46.365Z,8.70
2022-12-18T10:59:15.732Z,8.18
2022-12-18T11:01:53.925Z,8.25
2022-12-18T11:04:26.812Z,12.20
2022-12-18T11:06:56.813Z,9.70
2022-12-18T11:11:55.277Z,7.30
2022-12-18T11:14:30.734Z,8.40
2022-12-18T11:19:55.710Z,7.43
2022-12-18T11:22:28.973Z,7.22
2022-12-18T11:25:33.217Z,7.70
2022-12-18T11:28:03.072Z,6.88
2022-12-18T11:30:32.556Z,7.63
2022-12-18T11:33:12.069Z,6.72
2022-12-18T11:35:56.618Z,6.60
2022-12-18T11:38:27.059Z,7.93
2022-12-18T11:41:17.219Z,8.20
2022-12-18T11:46:39.964Z,6.78
2022-12-18T11:49:23.527Z,6.40
2022-12-18T11:52:20.073Z,6.30
2022-12-18T11:54:47.407Z,8.45
2022-12-18T11:57:30.223Z,7.35
2022-12-18T12:00:18.615Z,7.97
2022-12-18T12:02:46.088Z,6.65
2022-12-18T12:05:19.371Z,7.18
2022-12-18T12:07:46.794Z,6.57
2022-12-18T12:10:26.361Z,6.68
2022-12-18T12:13:07.293Z,6.85
2022-12-18T12:15:41.172Z,7.50
2022-12-18T12:18:40.085Z,7.75
2022-12-18T12:21:36.949Z,7.60
2022-12-18T12:24:19.483Z,7.07
2022-12-18T12:26:47.048Z,7.00
2022-12-18T12:29:32.768Z,6.03
2022-12-18T12:32:43.591Z,6.38
2022-12-18T12:35:11.736Z,7.85
2022-12-18T12:37:52.175Z,7.80
2022-12-18T12:40:56.662Z,6.03
2022-12-18T12:43:49.480Z,5.85
2022-12-18T12:46:20.947Z,5.90
2022-12-18T12:48:53.530Z,6.05
2022-12-18T12:51:31.362Z,5.20
2022-12-18T12:54:00.922Z,4.35
2022-12-18T12:56:43.432Z,6.00
2022-12-18T12:59:36.444Z,5.63
2022-12-18T13:02:08.378Z,4.97
2022-12-18T13:05:23.983Z,5.28
2022-12-18T13:08:10.727Z,5.22
2022-12-18T13:10:42.731Z,5.50
2022-12-18T13:13:17.144Z,5.63
2022-12-18T13:16:07.985Z,6.15
2022-12-18T13:18:36.169Z,5.63
2022-12-18T13:21:26.483Z,5.80
2022-12-18T13:23:53.859Z,5.30
2022-12-18T13:26:31.266Z,5.60
2022-12-18T13:28:59.560Z,5.90
2022-12-18T13:31:59.930Z,5.10
2022-12-18T13:34:31.850Z,4.80
2022-12-18T13:37:40.797Z,5.45
2022-12-18T13:40:49.222Z,4.85
2022-12-18T13:43:19.314Z,6.00
2022-12-18T13:48:20.650Z,6.00
2022-12-18T13:50:55.940Z,5.38
2022-12-18T13:53:30.725Z,4.97
2022-12-18T13:55:58.492Z,6.00
2022-12-18T13:58:25.846Z,5.90
2022-12-18T14:00:53.207Z,5.28
2022-12-18T14:03:28.104Z,4.50
2022-12-18T14:05:59.858Z,5.43
2022-12-18T14:08:33.315Z,4.85
2022-12-18T14:11:00.673Z,4.05
2022-12-18T14:13:35.077Z,4.68
2022-12-18T14:16:04.509Z,4.88
2022-12-18T14:18:46.858Z,4.85
2022-12-18T14:21:26.984Z,4.40
2022-12-18T14:24:16.732Z,5.18
2022-12-18T14:26:47.396Z,5.13
2022-12-18T14:29:32.058Z,4.85
2022-12-18T14:32:28.415Z,6.60
2022-12-18T14:34:56.368Z,5.32
2022-12-18T14:37:25.445Z,7.35
2022-12-18T14:39:58.141Z,5.68
2022-12-18T14:42:29.572Z,4.40
2022-12-18T14:45:41.073Z,6.38
2022-12-18T14:48:36.148Z,5.13
2022-12-18T14:51:07.144Z,5.63
2022-12-18T14:53:37.744Z,5.53
2022-12-18T14:56:20.648Z,5.20
2022-12-18T14:59:25.341Z,5.30
2022-12-18T15:02:19.567Z,5.93
2022-12-18T15:04:47.144Z,5.50
2022-12-18T15:07:21.700Z,6.35
2022-12-18T15:10:09.037Z,5.25
2022-12-18T15:12:41.260Z,6.32
2022-12-18T15:15:37.051Z,5.63
2022-12-18T15:18:08.438Z,6.57
2022-12-18T15:20:43.537Z,6.50
2022-12-18T15:23:19.690Z,6.03
2022-12-18T15:25:48.912Z,6.45
2022-12-18T15:28:30.193Z,6.72
2022-12-18T15:31:22.540Z,6.13
2022-12-18T15:33:55.976Z,6.00
2022-12-18T15:36:26.321Z,6.57
2022-12-18T15:39:02.234Z,6.03
2022-12-18T15:41:37.664Z,5.70
2022-12-18T15:44:23.392Z,7.32
2022-12-18T15:46:50.856Z,6.72
2022-12-18T15:49:18.170Z,6.95
2022-12-18T15:51:45.585Z,7.75
2022-12-18T15:54:16.643Z,7.72
2022-12-18T15:57:03.142Z,6.80
2022-12-18T15:59:30.499Z,7.20
2022-12-18T16:01:58.172Z,5.85
2022-12-18T16:04:26.311Z,8.27
2022-12-18T16:09:40.961Z,7.25
2022-12-18T16:12:23.612Z,7.38
2022-12-18T16:14:51.009Z,6.68
2022-12-18T16:17:18.736Z,8.20
2022-12-18T16:19:46.132Z,7.80
2022-12-18T16:22:21.139Z,6.32
2022-12-18T16:24:48.761Z,6.82
2022-12-18T16:27:16.090Z,7.85
2022-12-18T16:29:43.699Z,8.45
2022-12-18T16:32:18.125Z,7.40
2022-12-18T16:34:45.797Z,7.03
2022-12-18T16:37:14.371Z,7.90
2022-12-18T16:39:42.143Z,7.65
2022-12-18T16:42:20.348Z,6.72
2022-12-18T16:44:49.415Z,8.57
2022-12-18T16:47:17.191Z,7.95
2022-12-18T16:49:46.005Z,8.43
2022-12-18T16:52:13.985Z,7.25
2022-12-18T16:54:41.337Z,7.50
2022-12-18T16:57:16.227Z,7.82
2022-12-18T16:59:43.542Z,7.80
2022-12-18T17:02:23.444Z,6.75
2022-12-18T17:04:51.667Z,7.80
2022-12-18T17:07:18.968Z,7.43
2022-12-18T17:09:46.289Z,7.93
2022-12-18T17:12:13.709Z,8.13
2022-12-18T17:14:41.025Z,8.68
2022-12-18T17:17:20.810Z,7.80
2022-12-18T17:19:49.554Z,8.50
2022-12-18T17:22:16.826Z,8.68
2022-12-18T17:24:44.261Z,7.97
2022-12-18T17:27:11.602Z,7.95
2022-12-18T17:29:43.885Z,7.45
2022-12-18T17:32:14.662Z,8.25
2022-12-18T17:34:42.253Z,8.05
2022-12-18T17:37:10.116Z,8.07
2022-12-18T17:39:37.495Z,8.43
2022-12-18T17:42:05.252Z,7.55
2022-12-18T17:44:34.437Z,8.80
2022-12-18T17:47:02.013Z,8.60
2022-12-18T17:49:29.478Z,8.15
2022-12-18T17:51:56.785Z,7.80
2022-12-18T17:54:24.120Z,8.45
2022-12-18T17:56:51.491Z,7.95
2022-12-18T17:59:18.842Z,8.05
2022-12-18T18:01:46.259Z,8.65
2022-12-18T18:04:14.218Z,9.13
2022-12-18T18:06:41.711Z,7.50
2022-12-18T18:09:16.045Z,8.93
2022-12-18T18:12:02.765Z,7.75
2022-12-18T18:14:30.386Z,8.02
2022-12-18T18:16:59.191Z,8.55
2022-12-18T18:19:33.384Z,7.88
2022-12-18T18:22:01.634Z,8.88
2022-12-18T18:24:30.400Z,8.52
2022-12-18T18:27:00.011Z,8.45
2022-12-18T18:29:30.561Z,10.13
2022-12-18T18:31:58.632Z,8.50
2022-12-18T18:34:28.935Z,9.10
2022-12-18T18:36:56.316Z,9.45
2022-12-18T18:39:23.631Z,11.02
2022-12-18T18:41:51.467Z,9.88
2022-12-18T18:44:24.444Z,10.52
2022-12-18T18:46:57.527Z,8.65
2022-12-18T18:49:27.190Z,8.43
2022-12-18T18:51:56.933Z,8.13
2022-12-18T18:54:24.725Z,8.10
2022-12-18T18:59:39.946Z,8.55
2022-12-18T19:02:07.878Z,9.73
2022-12-18T19:04:37.862Z,10.52
2022-12-18T19:07:14.569Z,10.38
2022-12-18T19:09:57.791Z,9.20
2022-12-18T19:12:47.470Z,9.52
2022-12-18T19:15:14.916Z,10.65
2022-12-18T19:17:42.415Z,11.40
2022-12-18T19:20:15.193Z,10.02
2022-12-18T19:22:42.911Z,9.70
2022-12-18T19:25:11.235Z,9.82
2022-12-18T19:27:40.168Z,9.32
2022-12-18T19:30:07.976Z,8.40
2022-12-18T19:32:35.552Z,8.18
2022-12-18T19:35:03.910Z,8.63
2022-12-18T19:37:32.077Z,10.23
2022-12-18T19:39:59.752Z,9.30
2022-12-18T19:42:35.207Z,8.90
2022-12-18T19:45:02.996Z,8.45
2022-12-18T19:47:30.366Z,8.70
2022-12-18T19:49:57.960Z,9.07
2022-12-18T19:52:25.959Z,9.57
2022-12-18T19:54:53.974Z,9.20
2022-12-18T19:57:21.811Z,10.13
2022-12-18T19:59:49.231Z,9.13
2022-12-18T20:02:16.892Z,10.55
2022-12-18T20:04:44.424Z,11.20
2022-12-18T20:07:11.889Z,9.38
2022-12-18T20:09:39.559Z,9.20
2022-12-18T20:12:07.179Z,8.98
2022-12-18T20:14:34.819Z,9.30
2022-12-18T20:17:02.408Z,9.20
2022-12-18T20:19:29.868Z,8.38
2022-12-18T20:21:57.812Z,9.93
2022-12-18T20:24:25.252Z,10.27
2022-12-18T20:26:52.655Z,8.50
2022-12-18T20:29:19.977Z,8.88
2022-12-18T20:31:47.544Z,9.85
2022-12-18T20:34:14.922Z,8.43
2022-12-18T20:36:42.628Z,8.90
2022-12-18T20:39:12.119Z,10.93
2022-12-18T20:44:22.699Z,9.05
2022-12-18T20:46:53.102Z,8.63
2022-12-18T20:49:20.492Z,9.65
2022-12-18T20:51:50.469Z,8.38
2022-12-18T20:54:17.784Z,9.50
2022-12-18T20:56:45.122Z,10.07
2022-12-18T20:59:12.942Z,8.77
2022-12-18T21:01:46.030Z,9.85
2022-12-18T21:04:18.188Z,8.93
2022-12-18T21:06:50.917Z,8.40
2022-12-18T21:09:18.993Z,9.45
2022-12-18T21:12:05.017Z,8.40
2022-12-18T21:14:32.507Z,9.15
2022-12-18T21:17:02.905Z,9.07
2022-12-18T21:19:30.444Z,10.50
2022-12-18T21:21:58.085Z,9.18
2022-12-18T21:24:25.698Z,9.30
2022-12-18T21:26:54.643Z,9.13
2022-12-18T21:29:26.235Z,9.55
2022-12-18T21:31:54.717Z,9.52
2022-12-18T21:34:22.014Z,8.65
2022-12-18T21:36:49.740Z,9.13
2022-12-18T21:39:17.435Z,8.93
2022-12-18T21:42:11.309Z,9.30
2022-12-18T21:44:42.028Z,9.65
2022-12-18T21:47:20.829Z,8.95
2022-12-18T21:49:51.716Z,8.80
2022-12-18T21:52:19.086Z,9.38
2022-12-18T21:54:46.391Z,10.38
2022-12-18T21:57:13.800Z,9.15
2022-12-18T21:59:43.376Z,8.68
2022-12-18T22:02:18.945Z,9.45
2022-12-18T22:04:47.014Z,9.32
2022-12-18T22:07:15.752Z,8.77
2022-12-18T22:09:43.499Z,8.55
2022-12-18T22:12:13.791Z,9.18
2022-12-18T22:17:08.049Z,8.82
2022-12-18T22:19:42.647Z,10.18
2022-12-18T22:22:10.355Z,10.25
2022-12-18T22:24:37.642Z,9.93
2022-12-18T22:27:05.023Z,9.57
2022-12-18T22:29:50.991Z,9.52
2022-12-18T22:32:23.769Z,9.98
2022-12-18T22:35:04.884Z,8.77
2022-12-18T22:37:34.460Z,9.90
2022-12-18T22:40:03.346Z,9.88
2022-12-18T22:42:31.412Z,10.05
2022-12-18T22:45:00.311Z,9.32
2022-12-18T22:47:30.047Z,10.85
2022-12-18T22:52:25.457Z,8.57
2022-12-18T22:54:54.084Z,8.90
2022-12-18T22:57:22.413Z,9.45
2022-12-18T22:59:50.311Z,9.65
2022-12-18T23:02:19.040Z,9.32
2022-12-18T23:04:47.675Z,9.60
2022-12-18T23:07:15.248Z,9.35
2022-12-18T23:09:42.575Z,9.88
2022-12-18T23:12:15.983Z,10.95
2022-12-18T23:14:43.976Z,8.40
2022-12-18T23:17:11.478Z,9.43
2022-12-18T23:19:41.641Z,9.48
2022-12-18T23:22:11.884Z,11.57
2022-12-18T23:24:39.532Z,9.43
2022-12-18T23:27:09.383Z,9.98
2022-12-18T23:29:39.528Z,9.90
2022-12-18T23:32:06.986Z,10.13
2022-12-18T23:34:34.278Z,12.00
2022-12-18T23:37:03.655Z,18.55
2022-12-18T23:39:31.180Z,19.98
2022-12-18T23:42:01.583Z,20.67
2022-12-18T23:44:28.994Z,17.35
2022-12-18T23:46:56.428Z,17.23
2022-12-18T23:49:24.066Z,16.77
2022-12-18T23:51:51.716Z,13.63
2022-12-18T23:54:22.378Z,11.95
2022-12-18T23:56:59.936Z,10.48
2022-12-18T23:59:27.219Z,11.82
